createdAt,value
2023-03-24T00:02:04.602Z,31.85
2023-03-24T00:04:35.369Z,31.85
2023-03-24T00:07:05.806Z,31.85
2023-03-24T00:09:36.102Z,31.84
2023-03-24T00:12:06.667Z,31.85
2023-03-24T00:14:37.138Z,31.86
2023-03-24T00:17:16.177Z,31.87
2023-03-24T00:19:50.284Z,31.86
2023-03-24T00:22:23.652Z,31.87
2023-03-24T00:24:53.934Z,31.89
2023-03-24T00:27:24.962Z,31.87
2023-03-24T00:29:55.285Z,31.87
2023-03-24T00:32:25.464Z,31.88
2023-03-24T00:35:16.055Z,31.88
2023-03-24T00:37:47.075Z,31.87
2023-03-24T00:40:18.890Z,31.88
2023-03-24T00:42:51.353Z,31.88
2023-03-24T00:45:25.356Z,31.88
2023-03-24T00:48:13.672Z,31.88
2023-03-24T00:50:48.342Z,31.87
2023-03-24T00:53:20.978Z,31.88
2023-03-24T00:55:52.416Z,31.88
2023-03-24T00:58:24.174Z,31.87
2023-03-24T01:00:58.608Z,31.87
2023-03-24T01:03:29.840Z,31.88
2023-03-24T01:06:18.662Z,31.90
2023-03-24T01:08:49.646Z,31.88
2023-03-24T01:11:20.453Z,31.91
2023-03-24T01:13:51.906Z,31.93
2023-03-24T01:16:22.739Z,31.92
2023-03-24T01:18:53.184Z,31.91
2023-03-24T01:21:23.689Z,31.94
2023-03-24T01:23:55.164Z,31.92
2023-03-24T01:26:25.767Z,31.91
2023-03-24T01:28:56.178Z,31.94
2023-03-24T01:34:12.364Z,31.95
2023-03-24T01:36:42.903Z,31.96
2023-03-24T01:39:13.177Z,31.99
2023-03-24T01:44:37.705Z,32.00
2023-03-24T01:47:11.150Z,32.01
2023-03-24T01:49:56.774Z,32.01
2023-03-24T01:55:22.466Z,32.03
2023-03-24T01:58:00.667Z,32.06
2023-03-24T02:00:40.512Z,32.08
2023-03-24T02:03:36.651Z,32.07
2023-03-24T02:06:09.314Z,32.09
2023-03-24T02:08:57.452Z,32.08
2023-03-24T02:11:47.377Z,32.08
2023-03-24T02:14:18.590Z,32.09
2023-03-24T02:17:25.761Z,32.10
2023-03-24T02:20:53.780Z,32.11
2023-03-24T02:23:35.806Z,32.11
2023-03-24T02:26:36.133Z,32.11
2023-03-24T02:29:36.798Z,32.12
2023-03-24T02:32:53.545Z,32.12
2023-03-24T02:36:06.870Z,32.12
2023-03-24T02:39:04.087Z,32.14
2023-03-24T02:41:42.639Z,32.15
2023-03-24T02:44:28.411Z,32.15
2023-03-24T02:47:26.827Z,32.15
2023-03-24T02:50:36.186Z,32.16
2023-03-24T02:53:19.095Z,32.16
2023-03-24T02:56:15.409Z,32.16
2023-03-24T02:59:18.947Z,32.16
2023-03-24T03:02:10.786Z,32.19
2023-03-24T03:05:10.565Z,32.15
2023-03-24T03:07:41.512Z,32.17
2023-03-24T03:10:41.239Z,32.16
2023-03-24T03:14:08.437Z,32.18
2023-03-24T03:17:02.251Z,32.18
2023-03-24T03:19:55.104Z,32.19
2023-03-24T03:23:07.988Z,32.19
2023-03-24T03:28:32.435Z,32.20
2023-03-24T03:31:10.698Z,32.21
2023-03-24T03:34:23.591Z,32.20
2023-03-24T03:37:03.191Z,32.20
2023-03-24T03:39:38.241Z,32.19
2023-03-24T03:42:12.442Z,32.21
2023-03-24T03:44:43.478Z,32.23
2023-03-24T03:47:34.510Z,32.24
2023-03-24T03:50:07.195Z,32.23
2023-03-24T03:52:40.771Z,32.24
2023-03-24T03:55:13.060Z,32.24
2023-03-24T03:57:45.810Z,32.25
2023-03-24T04:00:27.739Z,32.25
2023-03-24T04:03:47.375Z,32.26
2023-03-24T04:06:57.361Z,32.25
2023-03-24T04:13:03.527Z,32.27
2023-03-24T04:16:06.074Z,32.27
2023-03-24T04:22:29.575Z,32.31
2023-03-24T04:25:32.478Z,32.31
2023-03-24T04:28:33.398Z,32.32
2023-03-24T04:31:28.882Z,32.33
2023-03-24T04:34:23.064Z,32.32
2023-03-24T04:37:06.520Z,32.35
2023-03-24T04:39:49.231Z,32.33
2023-03-24T04:45:35.815Z,32.36
2023-03-24T04:48:24.314Z,32.36
2023-03-24T04:51:15.427Z,32.38
2023-03-24T04:54:04.254Z,32.42
2023-03-24T04:57:08.420Z,32.42
2023-03-24T04:59:45.472Z,32.43
2023-03-24T05:02:34.230Z,32.42
2023-03-24T05:05:23.442Z,32.46
2023-03-24T05:10:40.097Z,32.50
2023-03-24T05:13:11.618Z,32.50
2023-03-24T05:15:52.584Z,32.52
2023-03-24T05:18:30.232Z,32.52
2023-03-24T05:21:02.442Z,32.49
2023-03-24T05:23:33.225Z,32.50
2023-03-24T05:26:03.775Z,32.50
2023-03-24T05:28:38.629Z,32.48
2023-03-24T05:31:09.362Z,32.49
2023-03-24T05:33:59.037Z,32.53
2023-03-24T05:36:47.168Z,32.54
2023-03-24T05:39:22.057Z,32.55
2023-03-24T05:41:59.339Z,32.58
2023-03-24T05:44:29.762Z,32.56
2023-03-24T05:47:18.647Z,32.56
2023-03-24T05:52:36.692Z,32.62
2023-03-24T05:55:27.632Z,32.62
2023-03-24T05:58:05.959Z,32.62
2023-03-24T06:00:46.981Z,32.63
2023-03-24T06:03:36.877Z,32.65
2023-03-24T06:06:25.456Z,32.62
2023-03-24T06:08:57.112Z,32.66
2023-03-24T06:11:29.023Z,32.64
2023-03-24T06:14:17.540Z,32.66
2023-03-24T06:17:01.791Z,32.67
2023-03-24T06:19:35.326Z,32.67
2023-03-24T06:22:22.977Z,32.70
2023-03-24T06:24:53.478Z,32.73
2023-03-24T06:27:29.262Z,32.73
2023-03-24T06:30:20.157Z,32.74
2023-03-24T06:35:36.274Z,32.79
2023-03-24T06:38:24.742Z,32.80
2023-03-24T06:41:13.270Z,32.82
2023-03-24T06:46:29.782Z,32.83
2023-03-24T06:49:00.074Z,32.85
2023-03-24T06:51:30.609Z,32.83
2023-03-24T06:54:19.371Z,32.83
2023-03-24T06:56:49.844Z,32.85
2023-03-24T06:59:26.551Z,32.83
2023-03-24T07:01:58.026Z,32.84
2023-03-24T07:04:30.443Z,32.87
2023-03-24T07:09:47.149Z,32.90
2023-03-24T07:12:18.029Z,32.92
2023-03-24T07:17:33.637Z,32.96
2023-03-24T07:23:28.857Z,32.99
2023-03-24T07:26:20.031Z,33.01
2023-03-24T07:28:50.676Z,32.99
2023-03-24T07:34:25.862Z,33.03
2023-03-24T07:37:00.631Z,33.02
2023-03-24T07:39:33.535Z,33.06
2023-03-24T07:42:04.316Z,33.03
2023-03-24T07:47:30.499Z,33.05
2023-03-24T07:50:01.318Z,33.05
2023-03-24T07:52:32.649Z,33.07
2023-03-24T07:55:21.423Z,33.08
2023-03-24T07:58:10.165Z,33.11
2023-03-24T08:00:45.546Z,33.11
2023-03-24T08:09:42.623Z,33.16
2023-03-24T08:12:30.939Z,33.19
2023-03-24T08:15:01.437Z,33.19
2023-03-24T08:17:31.829Z,33.19
2023-03-24T08:20:04.706Z,33.19
2023-03-24T08:22:36.119Z,33.18
2023-03-24T08:25:06.459Z,33.19
2023-03-24T08:27:37.136Z,33.20
2023-03-24T08:30:09.916Z,33.19
2023-03-24T08:32:40.698Z,33.20
2023-03-24T08:35:33.873Z,33.20
2023-03-24T08:38:25.622Z,33.20
2023-03-24T08:40:55.840Z,33.21
2023-03-24T08:43:44.269Z,33.23
2023-03-24T08:46:36.480Z,33.25
2023-03-24T08:49:25.155Z,33.25
2023-03-24T08:51:55.558Z,33.27
2023-03-24T08:54:27.229Z,33.28
2023-03-24T08:56:57.729Z,33.29
2023-03-24T08:59:27.997Z,33.30
2023-03-24T09:01:58.532Z,33.31
2023-03-24T09:04:48.290Z,33.30
2023-03-24T09:07:36.943Z,33.31
2023-03-24T09:10:09.936Z,33.29
2023-03-24T09:15:26.428Z,33.30
2023-03-24T09:18:15.072Z,33.30
2023-03-24T09:20:45.636Z,33.30
2023-03-24T09:23:16.750Z,33.29
2023-03-24T09:25:48.138Z,33.28
2023-03-24T09:28:18.759Z,33.30
2023-03-24T09:30:49.405Z,33.31
2023-03-24T09:33:20.367Z,33.31
2023-03-24T09:36:00.555Z,33.33
2023-03-24T09:38:32.664Z,33.33
2023-03-24T09:41:05.149Z,33.32
2023-03-24T09:44:12.131Z,33.34
2023-03-24T09:46:49.013Z,33.36
2023-03-24T09:49:41.134Z,33.35
2023-03-24T09:52:17.653Z,33.35
2023-03-24T09:54:55.262Z,33.35
2023-03-24T09:57:31.397Z,33.35
2023-03-24T10:00:01.644Z,33.35
2023-03-24T10:09:18.400Z,33.31
2023-03-24T10:12:11.117Z,33.31
2023-03-24T10:14:53.526Z,33.30
2023-03-24T10:17:53.486Z,33.30
2023-03-24T10:23:41.374Z,33.28
2023-03-24T10:26:32.698Z,33.28
2023-03-24T10:29:27.849Z,33.27
2023-03-24T10:32:06.441Z,33.27
2023-03-24T10:34:37.521Z,33.29
2023-03-24T10:37:26.201Z,33.30
2023-03-24T10:39:56.513Z,33.30
2023-03-24T10:45:32.644Z,33.31
2023-03-24T10:48:06.693Z,33.28
2023-03-24T10:50:56.075Z,33.31
2023-03-24T10:53:26.778Z,33.30
2023-03-24T10:55:57.138Z,33.30
2023-03-24T10:58:48.400Z,33.31
2023-03-24T11:01:33.305Z,33.30
2023-03-24T11:04:23.268Z,33.29
2023-03-24T11:07:23.178Z,33.30
2023-03-24T11:10:01.893Z,33.30
2023-03-24T11:12:34.666Z,33.28
2023-03-24T11:15:35.772Z,33.27
2023-03-24T11:18:14.673Z,33.26
2023-03-24T11:21:10.364Z,33.23
2023-03-24T11:23:48.425Z,33.21
2023-03-24T11:26:24.568Z,33.23
2023-03-24T11:29:00.109Z,33.21
2023-03-24T11:31:40.633Z,33.21
2023-03-24T11:34:19.308Z,33.21
2023-03-24T11:39:39.969Z,33.19
2023-03-24T11:42:19.686Z,33.19
2023-03-24T11:44:55.412Z,33.17
2023-03-24T11:47:41.169Z,33.19
2023-03-24T11:50:40.458Z,33.15
2023-03-24T11:53:33.496Z,33.15
2023-03-24T11:56:12.813Z,33.15
2023-03-24T12:02:15.002Z,33.13
2023-03-24T12:05:24.077Z,33.10
2023-03-24T12:08:22.665Z,33.13
2023-03-24T12:11:19.725Z,33.09
2023-03-24T13:33:18.417Z,32.24
2023-03-24T13:35:59.895Z,32.27
2023-03-24T13:38:43.381Z,32.28
2023-03-24T13:41:29.881Z,32.29
2023-03-24T13:44:09.042Z,32.34
2023-03-24T13:47:05.140Z,32.43
2023-03-24T13:52:47.723Z,32.33
2023-03-24T13:55:41.756Z,32.36
2023-03-24T13:58:28.789Z,32.34
2023-03-24T14:01:15.610Z,32.35
2023-03-24T14:04:11.880Z,32.39
2023-03-24T14:06:49.349Z,32.31
2023-03-24T14:09:26.161Z,32.40
2023-03-24T14:12:08.673Z,32.38
2023-03-24T14:15:08.342Z,32.46
2023-03-24T14:17:46.555Z,32.45
2023-03-24T14:23:37.718Z,32.31
2023-03-24T14:26:32.626Z,32.37
2023-03-24T14:29:03.630Z,32.27
2023-03-24T14:32:16.977Z,32.27
2023-03-24T14:35:02.907Z,32.23
2023-03-24T14:37:35.780Z,32.20
2023-03-24T14:40:10.334Z,32.24
2023-03-24T14:42:42.643Z,32.14
2023-03-24T14:45:44.063Z,32.05
2023-03-24T14:48:45.332Z,32.22
2023-03-24T14:51:30.466Z,32.29
2023-03-24T14:54:39.854Z,32.30
2023-03-24T14:57:11.708Z,32.34
2023-03-24T14:59:44.740Z,32.38
2023-03-24T15:02:45.153Z,32.38
2023-03-24T15:05:30.189Z,32.38
2023-03-24T15:08:17.195Z,32.38
2023-03-24T15:11:07.533Z,32.34
2023-03-24T15:13:41.132Z,32.27
2023-03-24T15:16:14.912Z,32.33
2023-03-24T15:19:08.060Z,32.51
2023-03-24T15:21:44.609Z,32.66
2023-03-24T15:24:34.785Z,32.60
2023-03-24T15:27:20.654Z,32.64
2023-03-24T15:29:57.428Z,32.69
2023-03-24T15:32:29.827Z,32.65
2023-03-24T15:35:02.810Z,32.71
2023-03-24T15:37:43.218Z,32.61
2023-03-24T15:40:32.858Z,32.65
2023-03-24T15:43:05.998Z,32.67
2023-03-24T15:48:27.405Z,32.69
2023-03-24T15:51:04.624Z,32.63
2023-03-24T15:54:01.489Z,32.54
2023-03-24T15:56:34.513Z,32.52
2023-03-24T15:59:14.236Z,32.52
2023-03-24T16:01:45.503Z,32.48
2023-03-24T16:04:23.121Z,32.46
2023-03-24T16:06:57.309Z,32.46
2023-03-24T16:09:29.584Z,32.43
2023-03-24T16:11:59.914Z,32.43
2023-03-24T16:14:33.017Z,32.41
2023-03-24T16:17:05.559Z,32.40
2023-03-24T16:19:35.840Z,32.42
2023-03-24T16:22:17.345Z,32.40
2023-03-24T16:24:47.679Z,32.38
2023-03-24T16:27:18.490Z,32.41
2023-03-24T16:29:50.073Z,32.36
2023-03-24T16:32:20.367Z,32.36
2023-03-24T16:34:50.750Z,32.34
2023-03-24T16:37:21.273Z,32.35
2023-03-24T16:39:51.794Z,32.35
2023-03-24T16:42:22.103Z,32.33
2023-03-24T16:44:52.610Z,32.32
2023-03-24T16:47:24.098Z,32.32
2023-03-24T16:49:54.435Z,32.30
2023-03-24T16:52:24.718Z,32.30
2023-03-24T16:54:56.642Z,32.29
2023-03-24T16:57:26.967Z,32.29
2023-03-24T16:59:57.249Z,32.29
2023-03-24T17:02:50.940Z,32.28
2023-03-24T17:05:29.998Z,32.26
2023-03-24T17:08:00.779Z,32.26
2023-03-24T17:10:31.035Z,32.25
2023-03-24T17:13:01.622Z,32.27
2023-03-24T17:15:34.157Z,32.28
2023-03-24T17:18:22.829Z,32.25
2023-03-24T17:20:53.722Z,32.24
2023-03-24T17:23:24.390Z,32.22
2023-03-24T17:25:54.813Z,32.22
2023-03-24T17:28:25.029Z,32.22
2023-03-24T17:30:55.329Z,32.22
2023-03-24T17:33:25.654Z,32.20
2023-03-24T17:35:56.815Z,32.22
2023-03-24T17:38:27.238Z,32.19
2023-03-24T17:41:06.389Z,32.16
2023-03-24T17:43:36.887Z,32.18
